»·PEaware :: N9875 KDEN-KEGE

N9875 :: KDEN-KEGE

FLIGHT INFORMATION

Flight Status: Arrived
Operator: Privately registered:
United States
More flights under this callsign
Pilot: Anonymous 33184 (33184)
Aircraft: PILATUS PC-12 EAGLE
(PC12)
More flights by this aircraft type
Origin: KDEN Denver Intl
United States
Destination: KEGE Eagle Co Regl
United States
More flights between these airports :: More routes between these airports
Route: ROCKI5 RLG
File this flight plan on PilotEdge
Remarks: KEGE is FSX Default Scenery
Altitude:
(Current/Filed)
16,000ft
Speed:
(Current/Filed)
219kts
Departed: 06-Mar-21 03:44 PM
Arrived: 06-Mar-21 04:23 PM
Distance/Time
Traveled:
104nm/0:38
Distance/Time
To Go:
Arrived

Flight Plot

Page will automatically refresh every two minutes.

Flight plan parsing failed; only flown route is shown


Map Options




Map Legend


Flown Route
Filed Route
Departure Airport
Arrival Airport
Navaid (VOR, NDB)
Fix

Horizontal Profiles

Position Reports

Time Latitude Longitude Heading Altitude Ground
Speed
06-Mar-21 15:08 39.839654 -104.665057 180 5436ft 0kts
06-Mar-21 15:09 39.839654 -104.665057 180 5436ft 0kts
06-Mar-21 15:10 39.839654 -104.665057 180 5436ft 0kts
06-Mar-21 15:11 39.839654 -104.665057 180 5436ft 0kts
06-Mar-21 15:12 39.839654 -104.665057 180 5436ft 0kts
06-Mar-21 15:13 39.839654 -104.665057 180 5436ft 0kts
06-Mar-21 15:14 39.839653 -104.665057 180 5436ft 0kts
06-Mar-21 15:15 39.839652 -104.665057 180 5436ft 0kts
06-Mar-21 15:16 39.839650 -104.665057 180 5436ft 0kts
06-Mar-21 15:17 39.839649 -104.665057 180 5436ft 0kts
06-Mar-21 15:18 39.839647 -104.665057 180 5436ft 0kts
06-Mar-21 15:19 39.839646 -104.665057 180 5436ft 0kts
06-Mar-21 15:20 39.839644 -104.665057 180 5436ft 0kts
06-Mar-21 15:21 39.839643 -104.665057 180 5436ft 0kts
06-Mar-21 15:22 39.839641 -104.665057 180 5436ft 0kts
06-Mar-21 15:23 39.839640 -104.665057 180 5436ft 0kts
06-Mar-21 15:24 39.839639 -104.665057 180 5436ft 0kts
06-Mar-21 15:25 39.839637 -104.665057 180 5436ft 0kts
06-Mar-21 15:26 39.839636 -104.665057 180 5436ft 0kts
06-Mar-21 15:27 39.839634 -104.665057 180 5436ft 0kts
06-Mar-21 15:28 39.839633 -104.665057 180 5436ft 0kts
06-Mar-21 15:29 39.839632 -104.665057 180 5436ft 0kts
06-Mar-21 15:30 39.839739 -104.663955 37 5436ft 7kts
06-Mar-21 15:31 39.843375 -104.662500 358 5436ft 21kts
06-Mar-21 15:32 39.849736 -104.662434 1 5436ft 23kts
06-Mar-21 15:33 39.856573 -104.662349 0 5436ft 25kts
06-Mar-21 15:34 39.861009 -104.661990 73 5436ft 0kts
06-Mar-21 15:35 39.861010 -104.661988 73 5436ft 0kts
06-Mar-21 15:36 39.861010 -104.661986 73 5436ft 0kts
06-Mar-21 15:37 39.861010 -104.661985 73 5436ft 0kts
06-Mar-21 15:38 39.861011 -104.661983 73 5436ft 0kts
06-Mar-21 15:39 39.861011 -104.661980 73 5436ft 0kts
06-Mar-21 15:40 39.861012 -104.661978 73 5436ft 0kts
06-Mar-21 15:41 39.861095 -104.661567 91 5436ft 0kts
06-Mar-21 15:42 39.860692 -104.660165 182 5436ft 0kts
06-Mar-21 15:43 39.842567 -104.661197 196 5994ft 117kts
06-Mar-21 15:44 39.827943 -104.707150 253 8015ft 150kts
06-Mar-21 15:45 39.830250 -104.761260 313 10146ft 175kts
06-Mar-21 15:46 39.851221 -104.816290 277 12012ft 181kts
06-Mar-21 15:47 39.861724 -104.882353 284 13686ft 191kts
06-Mar-21 15:48 39.877835 -104.948947 283 15304ft 195kts
06-Mar-21 15:49 39.893733 -105.020982 280 15993ft 230kts
06-Mar-21 15:50 39.910291 -105.106344 282 16011ft 252kts
06-Mar-21 15:51 39.928669 -105.192311 282 16001ft 232kts
06-Mar-21 15:52 39.945436 -105.270292 282 16000ft 217kts
06-Mar-21 15:53 39.961440 -105.344888 281 16008ft 210kts
06-Mar-21 15:54 39.977032 -105.417787 281 16030ft 207kts
06-Mar-21 15:55 39.992658 -105.491095 281 15910ft 210kts
06-Mar-21 15:56 40.008176 -105.564120 281 15948ft 206kts
06-Mar-21 15:57 40.023420 -105.636140 281 15978ft 206kts
06-Mar-21 15:58 40.028254 -105.710039 264 16003ft 205kts
06-Mar-21 15:59 40.025858 -105.783867 264 16011ft 202kts
06-Mar-21 16:00 40.023464 -105.856925 264 16010ft 202kts
06-Mar-21 16:01 40.021021 -105.930171 264 16008ft 201kts
06-Mar-21 16:02 40.018539 -106.003258 264 16011ft 201kts
06-Mar-21 16:03 40.016009 -106.076339 264 16011ft 201kts
06-Mar-21 16:04 40.013434 -106.149442 264 16011ft 201kts
06-Mar-21 16:05 40.010820 -106.222323 264 16011ft 201kts
06-Mar-21 16:06 40.008161 -106.295272 263 16011ft 201kts
06-Mar-21 16:07 40.005388 -106.369647 263 15568ft 209kts
06-Mar-21 16:08 39.996231 -106.443767 233 14991ft 211kts
06-Mar-21 16:09 39.945409 -106.488916 213 13521ft 228kts
06-Mar-21 16:10 39.892313 -106.531795 213 12434ft 220kts
06-Mar-21 16:11 39.842931 -106.571613 214 12115ft 194kts
06-Mar-21 16:12 39.796914 -106.604321 201 12114ft 185kts
06-Mar-21 16:13 39.747612 -106.623300 200 12114ft 185kts
06-Mar-21 16:14 39.700550 -106.644450 218 12100ft 154kts
06-Mar-21 16:15 39.683074 -106.686582 247 11292ft 126kts
06-Mar-21 16:16 39.670938 -106.728710 249 11093ft 131kts
06-Mar-21 16:17 39.662911 -106.769102 255 10994ft 101kts
06-Mar-21 16:18 39.657623 -106.803369 253 10019ft 94kts
06-Mar-21 16:19 39.651432 -106.838948 256 8505ft 104kts
06-Mar-21 16:20 39.647211 -106.873835 263 7225ft 97kts
06-Mar-21 16:21 39.643903 -106.905669 262 6551ft 79kts
06-Mar-21 16:22 39.641946 -106.916642 119 6540ft 6kts
06-Mar-21 16:23 39.641936 -106.916617 117 6540ft 0kts
06-Mar-21 16:24 39.641933 -106.916611 117 6540ft 0kts
06-Mar-21 16:25 39.642317 -106.912506 81 6540ft 2kts
06-Mar-21 16:26 39.641984 -106.909452 119 6540ft 13kts
06-Mar-21 16:27 39.642097 -106.905138 191 6540ft 6kts
06-Mar-21 16:28 39.641691 -106.905082 171 6540ft 0kts
06-Mar-21 16:29 39.641690 -106.905081 171 6540ft 0kts
06-Mar-21 16:30 39.641689 -106.905081 171 6540ft 0kts

Navigation Log

Ident Type
Flight plan parsing failed, navigation log unavailable